Miles City, MT

3:56 PM MST on February 05, 2016 (GMT -0700)
Wiley | | Change Station
CLOSE
Current Station
Airport
Location: Miles City,
Elevation: 2628 ft
Nearby Weather Stations
Active Advisory: High Wind Watch

Elev 2628 ft 46.43 °N, 105.88 °W | Updated 3 minutes ago

Clear
Clear
46 °F
Feels Like 40 °F
N
13
Wind Variable Wind from WSW

Today
High -- | Low -- °F
--% Chance of Precip.
Yesterday
High -- | Low -- °F
Precip. -- in
Pressure 30.17 in
Visibility 10.0 miles
Clouds Clear
Windchill 40 °F
Dew Point 22 °F
Humidity 39%
Rainfall 0.00 in
Snow Depth Not available.
7:22 AM 5:13 PM
Waning Crescent, 9% visible
METAR KMLS 052253Z AUTO 25011KT 10SM CLR 08/M06 A3011 RMK AO2 SLP217 T00781056
Pressure 30.17 in
Visibility 10.0 miles
Clouds Clear
Windchill 40 °F
Dew Point 22 °F
Humidity 39%
Rainfall 0.00 in
Snow Depth Not available.
7:22 AM 5:13 PM
Waning Crescent, 9% visible
METAR KMLS 052253Z AUTO 25011KT 10SM CLR 08/M06 A3011 RMK AO2 SLP217 T00781056

10-Day Weather Forecast

Almanac

Astronomy

Feb. 05, 2016 Rise Set
Actual Time
Civil Twilight
Nautical Twilight
Astronomical Twilight
Moon
Length of Visible Light
Length of Day
Tomorrow will be .
, % of the Moon is Illuminated

Today's Extremes

State Highs State Lows

Community

WunderPhotos

Upload Photos

1,890,875 photos uploaded!

WunderBlog® & News

Nearby

Air Quality

  Air Quality AQ Index Pollutant
Not available.

Snow Depth

Station Depth Elevation

Earthquake Activity

City Distance Mag. Time & Date
Minimum magnitude displayed is 2.5.

Coastal Water Temperatures

Place Temperature

Stations

Nearby Weather Stations

Station Location Temp. Windchill Dew Point Humidity Wind Precip. Elev Updated Type
                   

Watches & Warnings

High Wind Watch
Issued: 1:23 PM MST Feb. 5, 2016 – National Weather Service

... High wind watch remains in effect from Saturday morning
through Sunday afternoon...

* impacts... dangerous cross winds could make travel hazardous
for high profile and Load carrying vehicles.

* Timing... west to northwest winds will increase late Saturday
behind a cold front and continue into Sunday. Winds are
expected to diminish Sunday afternoon.

* Winds... peak gusts from 60 to 70 mph are possible.

Precautionary/preparedness actions...

Winds of these magnitudes can cause property damage without extra
precautions. Motorists in high profile vehicles should use
caution until the winds subside.